Ship Status Report: callsign AMOUK21

sailwx.info

Track history (hours):
 
Tides and Currents Weather Stations Pressure Air Temp Water Temp Dewpoint Dewpoint Depression Visibility Wind Speed Wind Dir Waves Ship Positions

Callsign AMOUK21 (name unknown)

Last reported at 2016-May-29 17:00 UTC. Time now 2016-May-29 19:14 UTC.
Position N 56°12' W 005°54'.

Barometer 1017.2 mb
Air temperature 14.6 ° C
Dewpoint 8.6 ° C

Date/timePositionNaut miles runAvg speedWind from/ knotsBaromVisibWave heightAir tempDewpointWater temp
2016-May-29 17:00N 56°12' W 005°54'1615.6 1017.2 14.6 8.6
2016-May-29 16:00N 56°24' W 005°36'3 3.3 1016.9 15.0 8.4
2016-May-29 15:00N 56°24' W 005°30'3 3.3 1017.1 17.9 9.8
2016-May-29 14:00N 56°24' W 005°36'1817.9 1016.8 12.5 9.4
2016-May-29 13:00N 56°36' W 006°00'1716.5 1017.2 14.3 9.8
2016-May-29 12:00N 56°36' W 006°30'9 8.9 1017.0 11.8 9.7
2016-May-29 11:00N 56°30' W 006°42'0 0.0 1017.0 10.2 9.5
2016-May-29 10:00N 56°30' W 006°42'9 8.9 1017.0 10.7 9.6
2016-May-29 09:00N 56°36' W 006°30'1313.2 1016.8 11.810.1
2016-May-29 08:00N 56°36' W 006°06'1514.5 1016.6 11.4 8.3
2016-May-29 07:00N 56°30' W 005°42'9 8.9 1016.4 10.5 7.6
2016-May-29 06:00N 56°24' W 005°30'0 0.0 1016.3 10.2 7.9
2016-May-29 05:00N 56°24' W 005°30'0 0.0 1016.0 8.7 7.1
2016-May-29 04:00N 56°24' W 005°30'0 0.0 1015.7 8.4 7.1
2016-May-29 03:00N 56°24' W 005°30'0 0.0 1015.7 8.8 7.5
2016-May-29 02:00N 56°24' W 005°30'0 0.0 1015.7 9.3 7.8
2016-May-29 01:00N 56°24' W 005°30'0 0.0 1015.8 10.4 8.5
2016-May-29 00:00N 56°24' W 005°30'0 0.0 1016.0 11.2 8.9
2016-May-28 23:00N 56°24' W 005°30'0 0.0 1016.0 11.6 8.9
2016-May-28 22:00N 56°24' W 005°30'3 3.3 1015.9 12.5 9.1
2016-May-28 21:00N 56°24' W 005°36'1615.6 1015.2 11.9 8.8
2016-May-28 20:00N 56°12' W 005°54'1211.7 1015.3 13.8 8.7
2016-May-28 19:00N 56°06' W 006°12'1211.7 1015.6 14.5 8.9
2016-May-28 18:00N 56°12' W 005°54'1615.6 1015.6 13.8 8.5
2016-May-28 17:00N 56°24' W 005°36'3 3.3 1015.4 14.0 7.4
2016-May-28 16:00N 56°24' W 005°30'0 0.0 1016.1 15.6 8.6
2016-May-28 15:00N 56°24' W 005°30'7 6.9 1016.4 14.0 8.6
2016-May-28 14:00N 56°30' W 005°36'1514.5 1016.6 14.3 8.0
2016-May-28 13:00N 56°36' W 006°00'1716.5 1016.9 13.2 8.5
2016-May-28 12:00N 56°36' W 006°30'1211.6 1017.0 13.2 8.2
2016-May-28 11:00N 56°30' W 006°48'3 3.3 1017.3 11.6 9.2
2016-May-28 10:00N 56°30' W 006°42'9 8.9 1017.4 11.7 8.9
2016-May-28 09:00N 56°36' W 006°30'1716.5 1017.6 11.7 8.7
2016-May-28 08:00N 56°36' W 006°00'1514.5 1017.7 11.5 8.4
2016-May-28 07:00N 56°30' W 005°36'7 6.9 1017.8 11.1 7.9
2016-May-28 06:00N 56°24' W 005°30'0 0.0 1017.9 12.2 8.2
2016-May-28 05:00N 56°24' W 005°30'0 0.0 1018.1 11.7 8.0
2016-May-28 04:00N 56°24' W 005°30'0 0.0 1018.2 11.1 7.8
2016-May-28 03:00N 56°24' W 005°30'0 0.0 1018.3 12.2 7.9
2016-May-28 02:00N 56°24' W 005°30'0 0.0 1018.6 11.9 8.3
2016-May-28 01:00N 56°24' W 005°30'0 0.0 1018.7 12.3 8.2
2016-May-28 00:00N 56°24' W 005°30'0 0.0 1018.6 12.5 8.0
2016-May-27 23:00N 56°24' W 005°30'0 0.0 1018.7 12.8 8.5
2016-May-27 22:00N 56°24' W 005°30'0 0.0 1018.9 13.0 8.7
2016-May-27 21:00N 56°24' W 005°30'3 3.3 1018.9 13.5 9.2
2016-May-27 20:00N 56°24' W 005°36'1615.6 1018.9 12.5 9.0
2016-May-27 19:00N 56°12' W 005°54'1211.7 1018.8 11.7 8.7
2016-May-27 18:00N 56°06' W 006°12'1211.7 1018.8 12.3 9.3
2016-May-27 17:00N 56°12' W 005°54'1615.6 1019.0 12.2 8.5
2016-May-27 16:00N 56°24' W 005°36'3 3.3 1019.1 13.0 8.6
2016-May-27 15:00N 56°24' W 005°30'0 0.0 1019.3 13.7 9.1
2016-May-27 14:00N 56°24' W 005°30'0 0.0 1019.4 13.9 8.7
2016-May-27 13:00N 56°24' W 005°30'1211.6 1019.5 11.5 8.7
2016-May-27 12:00N 56°30' W 005°48'1817.8 1019.3 11.6 8.0
2016-May-27 11:00N 56°42' W 006°12'1211.6 1019.3 11.0 8.5
2016-May-27 10:00N 56°36' W 006°30'1211.6 1019.3 10.8 8.4
2016-May-27 09:00N 56°30' W 006°48'1211.6 1019.3 11.0 9.3
2016-May-27 08:00N 56°36' W 006°30'1414.5 1019.3 10.7 8.9
2016-May-27 07:00N 56°42' W 006°06'1817.8 1019.1 10.1 8.0
2016-May-27 06:00N 56°30' W 005°42'9 8.9 1018.8 9.7 7.7
2016-May-27 05:00N 56°24' W 005°30'0 0.0 1018.9 10.5 8.5
2016-May-27 04:00N 56°24' W 005°30'0 0.0 1018.8 10.7 8.3
2016-May-27 03:00N 56°24' W 005°30'0 0.0 1018.8 10.3 8.1
2016-May-27 02:00N 56°24' W 005°30'0 0.0 1018.7 10.8 8.4
2016-May-27 01:00N 56°24' W 005°30'0 0.0 1018.7 11.3 8.2
2016-May-27 00:00N 56°24' W 005°30'0 0.0 1018.7 11.3 8.2
2016-May-26 23:00N 56°24' W 005°30'0 0.0 1018.5 12.2 7.9
2016-May-26 22:00N 56°24' W 005°30'0 0.0 1018.4 12.4 7.8
2016-May-26 21:00N 56°24' W 005°30'0 0.0 1018.0 13.1 7.3
2016-May-26 20:00N 56°24' W 005°30'1817.9 1017.7 12.6 7.4
2016-May-26 19:00N 56°12' W 005°54'1211.7 1018.1 11.3 7.9
2016-May-26 18:00N 56°06' W 006°12'1211.7 1018.0 13.1 7.5
2016-May-26 17:00N 56°12' W 005°54'1615.6 1017.8 11.6 7.2
2016-May-26 16:00N 56°24' W 005°36'3 3.3 1017.7 12.7 7.8
2016-May-26 15:00N 56°24' W 005°30'3 3.3 1017.8 17.3 7.3
2016-May-26 14:00N 56°24' W 005°36'1817.9 1017.6 13.6 7.5
2016-May-26 13:00N 56°36' W 006°00'1313.2 1018.6 15.2 5.7
2016-May-26 12:00N 56°36' W 006°24'1211.6 1018.9 11.2 7.3
2016-May-26 11:00N 56°30' W 006°42'3 3.3 1019.1 11.7 6.0
2016-May-26 10:00N 56°30' W 006°48'1211.6 1019.0 11.4 7.0
2016-May-26 09:00N 56°36' W 006°30'1414.5 1019.3 10.5 6.1
2016-May-26 08:00N 56°42' W 006°06'1817.8 1019.6 9.5 5.5
2016-May-26 07:00N 56°30' W 005°42'9 8.9 1019.8 9.4 5.1
2016-May-26 06:00N 56°24' W 005°30'0 0.0 1019.6 9.4 5.1
2016-May-26 05:00N 56°24' W 005°30'0 0.0 1019.8 8.3 4.7
2016-May-26 04:00N 56°24' W 005°30'0 0.0 1020.0 7.1 4.4
2016-May-26 03:00N 56°24' W 005°30'0 0.0 1020.3 7.0 4.1
2016-May-26 02:00N 56°24' W 005°30'0 0.0 1020.4 7.0 4.2
2016-May-26 01:00N 56°24' W 005°30'0 0.0 1020.8 7.8 4.5
2016-May-26 00:00N 56°24' W 005°30'0 0.0 1020.6 9.2 4.3
2016-May-25 23:00N 56°24' W 005°30'0 0.0 1020.7 9.7 4.0
2016-May-25 22:00N 56°24' W 005°30'0 0.0 1020.7 9.9 4.0
2016-May-25 21:00N 56°24' W 005°30'7 6.9 1020.3 10.6 4.7
2016-May-25 20:00N 56°30' W 005°36'1514.5 1018.1 10.5 5.3
2016-May-25 19:00N 56°36' W 006°00'1716.5 1019.4 12.8 3.6
2016-May-25 18:00N 56°36' W 006°30'9 8.9 1019.4 11.8 5.6
2016-May-25 17:00N 56°30' W 006°42'0 0.0 1020.0 11.3 5.8
2016-May-25 16:00N 56°30' W 006°42'1615.6 1021.6 10.9 5.6
2016-May-25 15:00N 56°42' W 007°00'1817.8 1022.4 10.6 5.5
2016-May-25 14:00N 56°54' W 007°24'0 0.0 1023.0 10.3 5.2
2016-May-25 13:00N 56°54' W 007°24'1615.5 1024.0 9.4 3.2
2016-May-25 12:00N 56°42' W 007°06'1414.5 1023.8 9.1 3.4
2016-May-25 11:00N 56°36' W 006°42'7 6.9 1023.6 9.7 2.4
2016-May-25 10:00N 56°30' W 006°48'1211.6 1024.3 8.9 1.5
2016-May-25 09:00N 56°36' W 006°30'1414.5 1024.5 9.1 1.9
2016-May-25 08:00N 56°42' W 006°06'1817.8 1024.5 8.7 1.9
2016-May-25 07:00N 56°30' W 005°42'9 8.9 1024.3 8.2 2.4
2016-May-25 06:00N 56°24' W 005°30'0 0.0 1025.0 6.7 0.7
2016-May-25 05:00N 56°24' W 005°30'0 0.0 1025.1 5.2 0.6
2016-May-25 04:00N 56°24' W 005°30'0 0.0 1025.3 4.6 2.0
2016-May-25 03:00N 56°24' W 005°30'0 0.0 1025.2 4.7 2.5
2016-May-25 02:00N 56°24' W 005°30'0 0.0 1025.5 6.1 3.9
2016-May-25 01:00N 56°24' W 005°30'0 0.0 1025.2 7.7 4.2
2016-May-24 23:00N 56°24' W 005°30'7 3.4 1024.9 10.3 5.6
2016-May-24 21:00N 56°30' W 005°36'1514.5 1021.7 11.6 4.8
2016-May-24 20:00N 56°36' W 006°00'1716.5 1022.6 14.6 5.4
2016-May-24 19:00N 56°36' W 006°30'1211.6 1022.8 13.4 8.1
2016-May-24 18:00N 56°30' W 006°48'1211.6 1023.7 12.5 9.2
2016-May-24 17:00N 56°36' W 006°30'7 6.6 1023.6 14.7 7.9
2016-May-24 16:00N 56°36' W 006°18'1514.5 1023.6 12.2 8.9
2016-May-24 15:00N 56°30' W 005°54'1514.6 1023.9 14.2 7.5
2016-May-24 14:00N 56°24' W 005°30'0 0.0 1024.2 15.8 6.5
2016-May-24 13:00N 56°24' W 005°30'1211.6 1024.4 14.2 7.8
2016-May-24 12:00N 56°18' W 005°48'1818.0 1024.5 12.4 7.8
2016-May-24 11:00N 56°06' W 006°12'7 6.7 1024.8 11.7 8.2
2016-May-24 10:00N 56°06' W 006°00'1615.6 1024.8 11.5 8.1
2016-May-24 09:00N 56°18' W 005°42'9 9.0 1024.9 11.9 7.5
2016-May-24 08:00N 56°24' W 005°30'0 0.0 1024.9 11.4 8.2
2016-May-24 07:00N 56°24' W 005°30'0 0.0 1024.8 10.8 7.9
2016-May-24 06:00N 56°24' W 005°30'0 0.0 1024.5 8.8 6.6
2016-May-24 05:00N 56°24' W 005°30'0 0.0 1024.2 6.1 5.0
2016-May-24 04:00N 56°24' W 005°30'0 0.0 1024.1 5.9 4.7
2016-May-24 03:00N 56°24' W 005°30'0 0.0 1024.1 6.4 5.1
2016-May-24 02:00N 56°24' W 005°30'0 0.0 1024.0 7.0 5.6
2016-May-24 01:00N 56°24' W 005°30'0 0.0 1024.1 7.3 5.8
2016-May-24 00:00N 56°24' W 005°30'0 0.0 1024.0 8.1 6.3
2016-May-23 23:00N 56°24' W 005°30'0 0.0 1023.8 8.6 6.4
2016-May-23 22:00N 56°24' W 005°30'3 1.7 1023.5 10.1 6.7
2016-May-23 20:00N 56°24' W 005°36'1615.6 1022.5 12.3 6.8
2016-May-23 19:00N 56°12' W 005°54'1211.7 1022.2 11.5 8.5
2016-May-23 18:00N 56°06' W 006°12'1211.7 1022.5 11.7 8.7
2016-May-23 17:00N 56°12' W 005°54'1615.6 1021.8 11.2 8.5
2016-May-23 16:00N 56°24' W 005°36'3 3.3 1021.7 12.0 7.4
2016-May-23 15:00N 56°24' W 005°30'7 6.9 1021.6 13.0 8.1
2016-May-23 14:00N 56°30' W 005°36'1514.5 1021.3 12.0 7.3
2016-May-23 13:00N 56°36' W 006°00'1313.2 1021.0 11.5 7.8
2016-May-23 12:00N 56°36' W 006°24'1211.6 1020.6 11.4 7.7
2016-May-23 11:00N 56°30' W 006°42'3 3.3 1019.6 10.5 8.1
2016-May-23 10:00N 56°30' W 006°48'1211.6 1019.2 11.0 7.7
2016-May-23 09:00N 56°36' W 006°30'1414.5 1019.0 10.7 7.5
2016-May-23 08:00N 56°42' W 006°06'1817.8 1018.4 9.2 8.1
2016-May-23 07:00N 56°30' W 005°42'9 4.5 1017.8 8.3 7.1
2016-May-23 05:00N 56°24' W 005°30'0 0.0 1016.7 6.7 5.4
2016-May-23 03:00N 56°24' W 005°30'0 0.0 1015.4 7.4 5.5
2016-May-23 02:00N 56°24' W 005°30'0 0.0 1014.7 8.8 6.1
2016-May-23 01:00N 56°24' W 005°30'0 0.0 1014.1 9.8 7.1
2016-May-23 00:00N 56°24' W 005°30'0 0.0 1013.7 10.0 7.3
2016-May-22 23:00N 56°24' W 005°30'0 0.0 1013.2 10.2 7.0
2016-May-22 22:00N 56°24' W 005°30'0 0.0 1012.3 10.4 7.4
2016-May-22 21:00N 56°24' W 005°30'3 3.3 1011.5 10.8 7.1
2016-May-22 20:00N 56°24' W 005°36'1615.6 1009.6 10.1 7.5
2016-May-22 19:00N 56°12' W 005°54'1211.7 1009.3 10.6 7.9
2016-May-22 18:00N 56°06' W 006°12'1211.7 1009.4 10.9 8.0
2016-May-22 17:00N 56°12' W 005°54'1615.6 1008.4 10.5 8.9
2016-May-22 16:00N 56°24' W 005°36'3 3.3 1007.5 10.5 8.3
2016-May-22 15:00N 56°24' W 005°30'2010.2 1007.5 13.2 5.6
2016-May-22 13:00N 56°36' W 006°00'1313.2 1006.1 12.7 5.7
2016-May-22 12:00N 56°36' W 006°24'1211.6 1005.9 10.3 8.6
2016-May-22 11:00N 56°30' W 006°42'0 0.0 1005.4 10.4 8.5
2016-May-22 10:00N 56°30' W 006°42'9 8.9 1004.4 10.4 8.5
2016-May-22 09:00N 56°36' W 006°30'2713.6 1003.7 9.9 8.6
2016-May-22 07:00N 56°30' W 005°42'9 8.9 1003.3 10.0 8.3
2016-May-22 06:00N 56°24' W 005°30'0 0.0 1003.0 10.0 7.9
2016-May-22 05:00N 56°24' W 005°30'0 0.0 1002.7 9.2 7.6
2016-May-22 04:00N 56°24' W 005°30'0 0.0 1002.1 9.3 7.6
2016-May-22 03:00N 56°24' W 005°30'0 0.0 1001.9 9.4 7.7
2016-May-22 02:00N 56°24' W 005°30'0 0.0 1001.7 9.6 7.9
2016-May-22 01:00N 56°24' W 005°30'0 0.0 1001.5 10.0 8.3
2016-May-22 00:00N 56°24' W 005°30'0 0.0 1001.2 10.2 8.3
2016-May-21 23:00N 56°24' W 005°30'0 0.0 1001.0 10.3 8.3
2016-May-21 22:00N 56°24' W 005°30'0 0.0 1000.5 10.5 8.5
2016-May-21 21:00N 56°24' W 005°30'0 0.0 1000.4 10.4 8.6
2016-May-21 20:00N 56°24' W 005°30'0 0.0 1000.2 10.7 8.6
2016-May-21 19:00N 56°24' W 005°30'0 0.0 999.4 12.5 8.2
2016-May-21 18:00N 56°24' W 005°30'0 0.0 999.2 12.2 8.6
2016-May-21 17:00N 56°24' W 005°30'0 0.0 999.0 12.3 8.6
2016-May-21 16:00N 56°24' W 005°30'0 0.0 998.8 12.9 8.3
2016-May-21 15:00N 56°24' W 005°30'7 6.9 998.6 11.7 8.7
2016-May-21 14:00N 56°30' W 005°36'1514.5 997.7 11.9 8.9
2016-May-21 13:00N 56°36' W 006°00'1313.2 996.6 11.0 8.8
2016-May-21 12:00N 56°36' W 006°24'1211.6 996.1 10.0 8.9
2016-May-21 11:00N 56°30' W 006°42'3 3.3 995.4 10.7 9.2
2016-May-21 10:00N 56°30' W 006°48'12 0.4 994.2 10.0 9.4
2016-May-20 08:00N 56°36' W 006°30'1716.5 1004.4 10.1 7.8
2016-May-20 07:00N 56°36' W 006°00'1211.6 1003.6 9.8 7.3
2016-May-20 06:00N 56°30' W 005°42'9 8.9 1004.4 9.2 6.8
2016-May-20 05:00N 56°24' W 005°30'0 0.0 1004.5 9.0 7.5
2016-May-20 04:00N 56°24' W 005°30'0 0.0 1004.1 8.8 6.0
2016-May-20 03:00N 56°24' W 005°30'0 0.0 1003.9 9.4 7.3
2016-May-20 01:00N 56°24' W 005°30'0 0.0 1004.0 9.6 7.5
2016-May-20 00:00N 56°24' W 005°30'0 0.0 1003.8 9.6 7.3
2016-May-19 23:00N 56°24' W 005°30'0 0.0 1003.6 9.4 7.5
2016-May-19 21:00N 56°24' W 005°30'3 3.3 1003.5 9.4 8.5
2016-May-19 20:00N 56°24' W 005°36'1615.6 1002.5 9.6 8.9
2016-May-19 19:00N 56°12' W 005°54'1211.7 1002.2 10.0 8.5
2016-May-19 18:00N 56°06' W 006°12'1211.7 1001.9 10.5 9.2
2016-May-19 17:00N 56°12' W 005°54'   1001.4 10.3 8.9
Track history (hours):
 
Tides and Currents Weather Stations Pressure Air Temp Water Temp Dewpoint Dewpoint Depression Visibility Wind Speed Wind Dir Waves Ship Positions

Callsign AMOUK21 (name unknown)

Last reported at 2016-May-29 17:00 UTC. Time now 2016-May-29 19:14 UTC.
Position N 56°12' W 005°54'.

Barometer 1017.2 mb
Air temperature 14.6 ° C
Dewpoint 8.6 ° C

Date/timePositionNaut miles runAvg speedWind from/ knotsBaromVisibWave heightAir tempDewpointWater temp
2016-May-29 17:00N 56°12' W 005°54'1615.6 1017.2 14.6 8.6
2016-May-29 16:00N 56°24' W 005°36'3 3.3 1016.9 15.0 8.4
2016-May-29 15:00N 56°24' W 005°30'3 3.3 1017.1 17.9 9.8
2016-May-29 14:00N 56°24' W 005°36'1817.9 1016.8 12.5 9.4
2016-May-29 13:00N 56°36' W 006°00'1716.5 1017.2 14.3 9.8
2016-May-29 12:00N 56°36' W 006°30'9 8.9 1017.0 11.8 9.7
2016-May-29 11:00N 56°30' W 006°42'0 0.0 1017.0 10.2 9.5
2016-May-29 10:00N 56°30' W 006°42'9 8.9 1017.0 10.7 9.6
2016-May-29 09:00N 56°36' W 006°30'1313.2 1016.8 11.810.1
2016-May-29 08:00N 56°36' W 006°06'1514.5 1016.6 11.4 8.3
2016-May-29 07:00N 56°30' W 005°42'9 8.9 1016.4 10.5 7.6
2016-May-29 06:00N 56°24' W 005°30'0 0.0 1016.3 10.2 7.9
2016-May-29 05:00N 56°24' W 005°30'0 0.0 1016.0 8.7 7.1
2016-May-29 04:00N 56°24' W 005°30'0 0.0 1015.7 8.4 7.1
2016-May-29 03:00N 56°24' W 005°30'0 0.0 1015.7 8.8 7.5
2016-May-29 02:00N 56°24' W 005°30'0 0.0 1015.7 9.3 7.8
2016-May-29 01:00N 56°24' W 005°30'0 0.0 1015.8 10.4 8.5
2016-May-29 00:00N 56°24' W 005°30'0 0.0 1016.0 11.2 8.9
2016-May-28 23:00N 56°24' W 005°30'0 0.0 1016.0 11.6 8.9
2016-May-28 22:00N 56°24' W 005°30'3 3.3 1015.9 12.5 9.1
2016-May-28 21:00N 56°24' W 005°36'1615.6 1015.2 11.9 8.8
2016-May-28 20:00N 56°12' W 005°54'1211.7 1015.3 13.8 8.7
2016-May-28 19:00N 56°06' W 006°12'1211.7 1015.6 14.5 8.9
2016-May-28 18:00N 56°12' W 005°54'1615.6 1015.6 13.8 8.5
2016-May-28 17:00N 56°24' W 005°36'3 3.3 1015.4 14.0 7.4
2016-May-28 16:00N 56°24' W 005°30'0 0.0 1016.1 15.6 8.6
2016-May-28 15:00N 56°24' W 005°30'7 6.9 1016.4 14.0 8.6
2016-May-28 14:00N 56°30' W 005°36'1514.5 1016.6 14.3 8.0
2016-May-28 13:00N 56°36' W 006°00'1716.5 1016.9 13.2 8.5
2016-May-28 12:00N 56°36' W 006°30'1211.6 1017.0 13.2 8.2
2016-May-28 11:00N 56°30' W 006°48'3 3.3 1017.3 11.6 9.2
2016-May-28 10:00N 56°30' W 006°42'9 8.9 1017.4 11.7 8.9
2016-May-28 09:00N 56°36' W 006°30'1716.5 1017.6 11.7 8.7
2016-May-28 08:00N 56°36' W 006°00'1514.5 1017.7 11.5 8.4
2016-May-28 07:00N 56°30' W 005°36'7 6.9 1017.8 11.1 7.9
2016-May-28 06:00N 56°24' W 005°30'0 0.0 1017.9 12.2 8.2
2016-May-28 05:00N 56°24' W 005°30'0 0.0 1018.1 11.7 8.0
2016-May-28 04:00N 56°24' W 005°30'0 0.0 1018.2 11.1 7.8
2016-May-28 03:00N 56°24' W 005°30'0 0.0 1018.3 12.2 7.9
2016-May-28 02:00N 56°24' W 005°30'0 0.0 1018.6 11.9 8.3
2016-May-28 01:00N 56°24' W 005°30'0 0.0 1018.7 12.3 8.2
2016-May-28 00:00N 56°24' W 005°30'0 0.0 1018.6 12.5 8.0
2016-May-27 23:00N 56°24' W 005°30'0 0.0 1018.7 12.8 8.5
2016-May-27 22:00N 56°24' W 005°30'0 0.0 1018.9 13.0 8.7
2016-May-27 21:00N 56°24' W 005°30'3 3.3 1018.9 13.5 9.2
2016-May-27 20:00N 56°24' W 005°36'1615.6 1018.9 12.5 9.0
2016-May-27 19:00N 56°12' W 005°54'1211.7 1018.8 11.7 8.7
2016-May-27 18:00N 56°06' W 006°12'1211.7 1018.8 12.3 9.3
2016-May-27 17:00N 56°12' W 005°54'1615.6 1019.0 12.2 8.5
2016-May-27 16:00N 56°24' W 005°36'3 3.3 1019.1 13.0 8.6
2016-May-27 15:00N 56°24' W 005°30'0 0.0 1019.3 13.7 9.1
2016-May-27 14:00N 56°24' W 005°30'0 0.0 1019.4 13.9 8.7
2016-May-27 13:00N 56°24' W 005°30'1211.6 1019.5 11.5 8.7
2016-May-27 12:00N 56°30' W 005°48'1817.8 1019.3 11.6 8.0
2016-May-27 11:00N 56°42' W 006°12'1211.6 1019.3 11.0 8.5
2016-May-27 10:00N 56°36' W 006°30'1211.6 1019.3 10.8 8.4
2016-May-27 09:00N 56°30' W 006°48'1211.6 1019.3 11.0 9.3
2016-May-27 08:00N 56°36' W 006°30'1414.5 1019.3 10.7 8.9
2016-May-27 07:00N 56°42' W 006°06'1817.8 1019.1 10.1 8.0
2016-May-27 06:00N 56°30' W 005°42'9 8.9 1018.8 9.7 7.7
2016-May-27 05:00N 56°24' W 005°30'0 0.0 1018.9 10.5 8.5
2016-May-27 04:00N 56°24' W 005°30'0 0.0 1018.8 10.7 8.3
2016-May-27 03:00N 56°24' W 005°30'0 0.0 1018.8 10.3 8.1
2016-May-27 02:00N 56°24' W 005°30'0 0.0 1018.7 10.8 8.4
2016-May-27 01:00N 56°24' W 005°30'0 0.0 1018.7 11.3 8.2
2016-May-27 00:00N 56°24' W 005°30'0 0.0 1018.7 11.3 8.2
2016-May-26 23:00N 56°24' W 005°30'0 0.0 1018.5 12.2 7.9
2016-May-26 22:00N 56°24' W 005°30'0 0.0 1018.4 12.4 7.8
2016-May-26 21:00N 56°24' W 005°30'0 0.0 1018.0 13.1 7.3
2016-May-26 20:00N 56°24' W 005°30'1817.9 1017.7 12.6 7.4
2016-May-26 19:00N 56°12' W 005°54'1211.7 1018.1 11.3 7.9
2016-May-26 18:00N 56°06' W 006°12'1211.7 1018.0 13.1 7.5
2016-May-26 17:00N 56°12' W 005°54'1615.6 1017.8 11.6 7.2
2016-May-26 16:00N 56°24' W 005°36'3 3.3 1017.7 12.7 7.8
2016-May-26 15:00N 56°24' W 005°30'3 3.3 1017.8 17.3 7.3
2016-May-26 14:00N 56°24' W 005°36'1817.9 1017.6 13.6 7.5
2016-May-26 13:00N 56°36' W 006°00'1313.2 1018.6 15.2 5.7
2016-May-26 12:00N 56°36' W 006°24'1211.6 1018.9 11.2 7.3
2016-May-26 11:00N 56°30' W 006°42'3 3.3 1019.1 11.7 6.0
2016-May-26 10:00N 56°30' W 006°48'1211.6 1019.0 11.4 7.0
2016-May-26 09:00N 56°36' W 006°30'1414.5 1019.3 10.5 6.1
2016-May-26 08:00N 56°42' W 006°06'1817.8 1019.6 9.5 5.5
2016-May-26 07:00N 56°30' W 005°42'9 8.9 1019.8 9.4 5.1
2016-May-26 06:00N 56°24' W 005°30'0 0.0 1019.6 9.4 5.1
2016-May-26 05:00N 56°24' W 005°30'0 0.0 1019.8 8.3 4.7
2016-May-26 04:00N 56°24' W 005°30'0 0.0 1020.0 7.1 4.4
2016-May-26 03:00N 56°24' W 005°30'0 0.0 1020.3 7.0 4.1
2016-May-26 02:00N 56°24' W 005°30'0 0.0 1020.4 7.0 4.2
2016-May-26 01:00N 56°24' W 005°30'0 0.0 1020.8 7.8 4.5
2016-May-26 00:00N 56°24' W 005°30'0 0.0 1020.6 9.2 4.3
2016-May-25 23:00N 56°24' W 005°30'0 0.0 1020.7 9.7 4.0
2016-May-25 22:00N 56°24' W 005°30'0 0.0 1020.7 9.9 4.0
2016-May-25 21:00N 56°24' W 005°30'7 6.9 1020.3 10.6 4.7
2016-May-25 20:00N 56°30' W 005°36'1514.5 1018.1 10.5 5.3
2016-May-25 19:00N 56°36' W 006°00'1716.5 1019.4 12.8 3.6
2016-May-25 18:00N 56°36' W 006°30'9 8.9 1019.4 11.8 5.6
2016-May-25 17:00N 56°30' W 006°42'0 0.0 1020.0 11.3 5.8
2016-May-25 16:00N 56°30' W 006°42'1615.6 1021.6 10.9 5.6
2016-May-25 15:00N 56°42' W 007°00'1817.8 1022.4 10.6 5.5
2016-May-25 14:00N 56°54' W 007°24'0 0.0 1023.0 10.3 5.2
2016-May-25 13:00N 56°54' W 007°24'1615.5 1024.0 9.4 3.2
2016-May-25 12:00N 56°42' W 007°06'1414.5 1023.8 9.1 3.4
2016-May-25 11:00N 56°36' W 006°42'7 6.9 1023.6 9.7 2.4
2016-May-25 10:00N 56°30' W 006°48'1211.6 1024.3 8.9 1.5
2016-May-25 09:00N 56°36' W 006°30'1414.5 1024.5 9.1 1.9
2016-May-25 08:00N 56°42' W 006°06'1817.8 1024.5 8.7 1.9
2016-May-25 07:00N 56°30' W 005°42'9 8.9 1024.3 8.2 2.4
2016-May-25 06:00N 56°24' W 005°30'0 0.0 1025.0 6.7 0.7
2016-May-25 05:00N 56°24' W 005°30'0 0.0 1025.1 5.2 0.6
2016-May-25 04:00N 56°24' W 005°30'0 0.0 1025.3 4.6 2.0
2016-May-25 03:00N 56°24' W 005°30'0 0.0 1025.2 4.7 2.5
2016-May-25 02:00N 56°24' W 005°30'0 0.0 1025.5 6.1 3.9
2016-May-25 01:00N 56°24' W 005°30'0 0.0 1025.2 7.7 4.2
2016-May-24 23:00N 56°24' W 005°30'7 3.4 1024.9 10.3 5.6
2016-May-24 21:00N 56°30' W 005°36'1514.5 1021.7 11.6 4.8
2016-May-24 20:00N 56°36' W 006°00'1716.5 1022.6 14.6 5.4
2016-May-24 19:00N 56°36' W 006°30'1211.6 1022.8 13.4 8.1
2016-May-24 18:00N 56°30' W 006°48'1211.6 1023.7 12.5 9.2
2016-May-24 17:00N 56°36' W 006°30'7 6.6 1023.6 14.7 7.9
2016-May-24 16:00N 56°36' W 006°18'1514.5 1023.6 12.2 8.9
2016-May-24 15:00N 56°30' W 005°54'1514.6 1023.9 14.2 7.5
2016-May-24 14:00N 56°24' W 005°30'0 0.0 1024.2 15.8 6.5
2016-May-24 13:00N 56°24' W 005°30'1211.6 1024.4 14.2 7.8
2016-May-24 12:00N 56°18' W 005°48'1818.0 1024.5 12.4 7.8
2016-May-24 11:00N 56°06' W 006°12'7 6.7 1024.8 11.7 8.2
2016-May-24 10:00N 56°06' W 006°00'1615.6 1024.8 11.5 8.1
2016-May-24 09:00N 56°18' W 005°42'9 9.0 1024.9 11.9 7.5
2016-May-24 08:00N 56°24' W 005°30'0 0.0 1024.9 11.4 8.2
2016-May-24 07:00N 56°24' W 005°30'0 0.0 1024.8 10.8 7.9
2016-May-24 06:00N 56°24' W 005°30'0 0.0 1024.5 8.8 6.6
2016-May-24 05:00N 56°24' W 005°30'0 0.0 1024.2 6.1 5.0
2016-May-24 04:00N 56°24' W 005°30'0 0.0 1024.1 5.9 4.7
2016-May-24 03:00N 56°24' W 005°30'0 0.0 1024.1 6.4 5.1
2016-May-24 02:00N 56°24' W 005°30'0 0.0 1024.0 7.0 5.6
2016-May-24 01:00N 56°24' W 005°30'0 0.0 1024.1 7.3 5.8
2016-May-24 00:00N 56°24' W 005°30'0 0.0 1024.0 8.1 6.3
2016-May-23 23:00N 56°24' W 005°30'0 0.0 1023.8 8.6 6.4
2016-May-23 22:00N 56°24' W 005°30'3 1.7 1023.5 10.1 6.7
2016-May-23 20:00N 56°24' W 005°36'1615.6 1022.5 12.3 6.8
2016-May-23 19:00N 56°12' W 005°54'1211.7 1022.2 11.5 8.5
2016-May-23 18:00N 56°06' W 006°12'1211.7 1022.5 11.7 8.7
2016-May-23 17:00N 56°12' W 005°54'1615.6 1021.8 11.2 8.5
2016-May-23 16:00N 56°24' W 005°36'3 3.3 1021.7 12.0 7.4
2016-May-23 15:00N 56°24' W 005°30'7 6.9 1021.6 13.0 8.1
2016-May-23 14:00N 56°30' W 005°36'1514.5 1021.3 12.0 7.3
2016-May-23 13:00N 56°36' W 006°00'1313.2 1021.0 11.5 7.8
2016-May-23 12:00N 56°36' W 006°24'1211.6 1020.6 11.4 7.7
2016-May-23 11:00N 56°30' W 006°42'3 3.3 1019.6 10.5 8.1
2016-May-23 10:00N 56°30' W 006°48'1211.6 1019.2 11.0 7.7
2016-May-23 09:00N 56°36' W 006°30'1414.5 1019.0 10.7 7.5
2016-May-23 08:00N 56°42' W 006°06'1817.8 1018.4 9.2 8.1
2016-May-23 07:00N 56°30' W 005°42'9 4.5 1017.8 8.3 7.1
2016-May-23 05:00N 56°24' W 005°30'0 0.0 1016.7 6.7 5.4
2016-May-23 03:00N 56°24' W 005°30'0 0.0 1015.4 7.4 5.5
2016-May-23 02:00N 56°24' W 005°30'0 0.0 1014.7 8.8 6.1
2016-May-23 01:00N 56°24' W 005°30'0 0.0 1014.1 9.8 7.1
2016-May-23 00:00N 56°24' W 005°30'0 0.0 1013.7 10.0 7.3
2016-May-22 23:00N 56°24' W 005°30'0 0.0 1013.2 10.2 7.0
2016-May-22 22:00N 56°24' W 005°30'0 0.0 1012.3 10.4 7.4
2016-May-22 21:00N 56°24' W 005°30'3 3.3 1011.5 10.8 7.1
2016-May-22 20:00N 56°24' W 005°36'1615.6 1009.6 10.1 7.5
2016-May-22 19:00N 56°12' W 005°54'1211.7 1009.3 10.6 7.9
2016-May-22 18:00N 56°06' W 006°12'1211.7 1009.4 10.9 8.0
2016-May-22 17:00N 56°12' W 005°54'1615.6 1008.4 10.5 8.9
2016-May-22 16:00N 56°24' W 005°36'3 3.3 1007.5 10.5 8.3
2016-May-22 15:00N 56°24' W 005°30'2010.2 1007.5 13.2 5.6
2016-May-22 13:00N 56°36' W 006°00'1313.2 1006.1 12.7 5.7
2016-May-22 12:00N 56°36' W 006°24'1211.6 1005.9 10.3 8.6
2016-May-22 11:00N 56°30' W 006°42'0 0.0 1005.4 10.4 8.5
2016-May-22 10:00N 56°30' W 006°42'9 8.9 1004.4 10.4 8.5
2016-May-22 09:00N 56°36' W 006°30'2713.6 1003.7 9.9 8.6
2016-May-22 07:00N 56°30' W 005°42'9 8.9 1003.3 10.0 8.3
2016-May-22 06:00N 56°24' W 005°30'0 0.0 1003.0 10.0 7.9
2016-May-22 05:00N 56°24' W 005°30'0 0.0 1002.7 9.2 7.6
2016-May-22 04:00N 56°24' W 005°30'0 0.0 1002.1 9.3 7.6
2016-May-22 03:00N 56°24' W 005°30'0 0.0 1001.9 9.4 7.7
2016-May-22 02:00N 56°24' W 005°30'0 0.0 1001.7 9.6 7.9
2016-May-22 01:00N 56°24' W 005°30'0 0.0 1001.5 10.0 8.3
2016-May-22 00:00N 56°24' W 005°30'0 0.0 1001.2 10.2 8.3
2016-May-21 23:00N 56°24' W 005°30'0 0.0 1001.0 10.3 8.3
2016-May-21 22:00N 56°24' W 005°30'0 0.0 1000.5 10.5 8.5
2016-May-21 21:00N 56°24' W 005°30'0 0.0 1000.4 10.4 8.6
2016-May-21 20:00N 56°24' W 005°30'0 0.0 1000.2 10.7 8.6
2016-May-21 19:00N 56°24' W 005°30'0 0.0 999.4 12.5 8.2
2016-May-21 18:00N 56°24' W 005°30'0 0.0 999.2 12.2 8.6
2016-May-21 17:00N 56°24' W 005°30'0 0.0 999.0 12.3 8.6
2016-May-21 16:00N 56°24' W 005°30'0 0.0 998.8 12.9 8.3
2016-May-21 15:00N 56°24' W 005°30'7 6.9 998.6 11.7 8.7
2016-May-21 14:00N 56°30' W 005°36'1514.5 997.7 11.9 8.9
2016-May-21 13:00N 56°36' W 006°00'1313.2 996.6 11.0 8.8
2016-May-21 12:00N 56°36' W 006°24'1211.6 996.1 10.0 8.9
2016-May-21 11:00N 56°30' W 006°42'3 3.3 995.4 10.7 9.2
2016-May-21 10:00N 56°30' W 006°48'12 0.4 994.2 10.0 9.4
2016-May-20 08:00N 56°36' W 006°30'1716.5 1004.4 10.1 7.8
2016-May-20 07:00N 56°36' W 006°00'1211.6 1003.6 9.8 7.3
2016-May-20 06:00N 56°30' W 005°42'9 8.9 1004.4 9.2 6.8
2016-May-20 05:00N 56°24' W 005°30'0 0.0 1004.5 9.0 7.5
2016-May-20 04:00N 56°24' W 005°30'0 0.0 1004.1 8.8 6.0
2016-May-20 03:00N 56°24' W 005°30'0 0.0 1003.9 9.4 7.3
2016-May-20 01:00N 56°24' W 005°30'0 0.0 1004.0 9.6 7.5
2016-May-20 00:00N 56°24' W 005°30'0 0.0 1003.8 9.6 7.3
2016-May-19 23:00N 56°24' W 005°30'0 0.0 1003.6 9.4 7.5
2016-May-19 21:00N 56°24' W 005°30'3 3.3 1003.5 9.4 8.5
2016-May-19 20:00N 56°24' W 005°36'1615.6 1002.5 9.6 8.9
2016-May-19 19:00N 56°12' W 005°54'1211.7 1002.2 10.0 8.5
2016-May-19 18:00N 56°06' W 006°12'1211.7 1001.9 10.5 9.2
2016-May-19 17:00N 56°12' W 005°54'   1001.4 10.3 8.9

Dump ship's entire track history